createdAt,value
2018-06-21T00:00:11.416Z,99744.13
2018-06-21T00:02:39.285Z,99748.56
2018-06-21T00:05:07.142Z,99741.18
2018-06-21T00:07:34.988Z,99746.44
2018-06-21T00:10:02.906Z,99751.61
2018-06-21T00:12:30.770Z,99752.91
2018-06-21T00:14:58.593Z,99755.09
2018-06-21T00:17:26.484Z,99750.16
2018-06-21T00:19:54.307Z,99740.58
2018-06-21T00:22:22.141Z,99743.05
2018-06-21T00:24:50.040Z,99744.42
2018-06-21T00:27:17.888Z,99740.34
2018-06-21T00:29:45.782Z,99741.50
2018-06-21T00:32:13.659Z,99732.70
2018-06-21T00:34:41.531Z,99737.06
2018-06-21T00:37:09.440Z,99734.89
2018-06-21T00:39:37.323Z,99725.02
2018-06-21T00:42:05.208Z,99730.27
2018-06-21T00:44:33.037Z,99730.83
2018-06-21T00:47:00.884Z,99724.48
2018-06-21T00:49:28.735Z,99723.39
2018-06-21T00:51:56.574Z,99728.86
2018-06-21T00:54:24.436Z,99726.57
2018-06-21T00:56:52.312Z,99731.52
2018-06-21T00:59:20.173Z,99726.89
2018-06-21T01:01:48.053Z,99727.96
2018-06-21T01:04:15.902Z,99723.23
2018-06-21T01:06:43.783Z,99722.64
2018-06-21T01:09:11.652Z,99725.38
2018-06-21T01:11:39.536Z,99722.59
2018-06-21T01:14:07.423Z,99716.20
2018-06-21T01:16:35.299Z,99712.88
2018-06-21T01:19:03.161Z,99719.37
2018-06-21T01:21:31.020Z,99714.16
2018-06-21T01:23:58.840Z,99713.55
2018-06-21T01:26:26.700Z,99716.48
2018-06-21T01:28:54.547Z,99715.09
2018-06-21T01:31:22.383Z,99709.84
2018-06-21T01:33:50.251Z,99715.36
2018-06-21T01:36:18.120Z,99714.88
2018-06-21T01:38:45.979Z,99715.19
2018-06-21T01:41:13.791Z,99718.47
2018-06-21T01:43:41.613Z,99712.83
2018-06-21T01:46:09.435Z,99717.64
2018-06-21T01:48:37.299Z,99719.02
2018-06-21T01:51:05.137Z,99725.58
2018-06-21T01:53:32.978Z,99724.50
2018-06-21T01:56:00.805Z,99725.93
2018-06-21T01:58:28.628Z,99729.48
2018-06-21T02:00:56.472Z,99731.38
2018-06-21T02:03:24.299Z,99726.14
2018-06-21T02:05:52.146Z,99731.27
2018-06-21T02:08:19.979Z,99733.00
2018-06-21T02:10:47.802Z,99727.63
2018-06-21T02:13:15.639Z,99737.36
2018-06-21T02:18:16.809Z,99737.43
2018-06-21T02:20:44.704Z,99740.69
2018-06-21T02:23:12.537Z,99746.12
2018-06-21T02:25:40.372Z,99746.85
2018-06-21T02:28:08.212Z,99751.27
2018-06-21T02:30:36.046Z,99754.38
2018-06-21T02:33:03.885Z,99753.89
2018-06-21T02:35:31.737Z,99749.21
2018-06-21T02:37:59.583Z,99755.97
2018-06-21T02:40:27.503Z,99762.13
2018-06-21T02:42:55.412Z,99759.83
2018-06-21T02:45:23.253Z,99758.45
2018-06-21T02:47:51.134Z,99760.69
2018-06-21T02:50:18.972Z,99761.00
2018-06-21T02:52:46.837Z,99759.63
2018-06-21T02:55:14.724Z,99762.76
2018-06-21T02:57:42.567Z,99759.56
2018-06-21T03:00:10.431Z,99753.38
2018-06-21T03:02:38.304Z,99742.81
2018-06-21T03:05:06.168Z,99745.34
2018-06-21T03:07:34.060Z,99747.23
2018-06-21T03:10:01.903Z,99747.04
2018-06-21T03:12:29.790Z,99749.77
2018-06-21T03:14:57.650Z,99760.44
2018-06-21T03:17:25.508Z,99758.15
2018-06-21T03:19:53.368Z,99759.50
2018-06-21T03:22:21.230Z,99761.89
2018-06-21T03:24:49.072Z,99763.83
2018-06-21T03:27:16.928Z,99760.66
2018-06-21T03:29:44.804Z,99759.98
2018-06-21T03:32:12.678Z,99760.16
2018-06-21T03:34:40.528Z,99750.91
2018-06-21T03:37:08.410Z,99739.30
2018-06-21T03:39:36.260Z,99732.13
2018-06-21T03:42:04.181Z,99727.96
2018-06-21T03:44:32.062Z,99728.54
2018-06-21T03:46:59.905Z,99740.53
2018-06-21T03:49:27.785Z,99749.41
2018-06-21T03:51:55.643Z,99747.26
2018-06-21T03:54:23.506Z,99741.69
2018-06-21T03:56:51.371Z,99740.11
2018-06-21T03:59:19.214Z,99726.50
2018-06-21T04:01:47.100Z,99714.62
2018-06-21T04:04:14.976Z,99713.92
2018-06-21T04:06:42.840Z,99713.61
2018-06-21T04:09:11.529Z,99713.03
2018-06-21T04:11:39.679Z,99716.19
2018-06-21T04:14:07.763Z,99714.34
2018-06-21T04:16:35.926Z,99704.94
2018-06-21T04:19:03.850Z,99709.05
2018-06-21T04:21:31.744Z,99710.94
2018-06-21T04:23:59.604Z,99715.95
2018-06-21T04:26:27.510Z,99723.88
2018-06-21T04:28:55.367Z,99720.81
2018-06-21T04:31:23.199Z,99724.25
2018-06-21T04:33:51.108Z,99722.30
2018-06-21T04:36:18.975Z,99720.07
2018-06-21T04:38:46.831Z,99718.91
2018-06-21T04:41:14.671Z,99712.30
2018-06-21T04:43:42.570Z,99713.13
2018-06-21T04:46:10.465Z,99704.55
2018-06-21T04:48:38.320Z,99714.48
2018-06-21T04:51:06.363Z,99728.16
2018-06-21T04:53:34.205Z,99733.98
2018-06-21T04:56:02.134Z,99724.69
2018-06-21T04:58:29.990Z,99716.45
2018-06-21T05:00:57.842Z,99727.67
2018-06-21T05:03:25.723Z,99720.78
2018-06-21T05:05:53.618Z,99732.22
2018-06-21T05:08:21.503Z,99726.56
2018-06-21T05:10:49.429Z,99734.31
2018-06-21T05:13:17.300Z,99733.51
2018-06-21T05:15:45.212Z,99735.08
2018-06-21T05:18:13.096Z,99728.97
2018-06-21T05:20:40.971Z,99725.06
2018-06-21T05:23:08.891Z,99734.16
2018-06-21T05:25:36.729Z,99733.41
2018-06-21T05:28:04.603Z,99730.09
2018-06-21T05:30:32.493Z,99724.45
2018-06-21T05:33:00.330Z,99723.49
2018-06-21T05:35:28.220Z,99717.38
2018-06-21T05:37:56.061Z,99707.18
2018-06-21T05:40:33.046Z,99705.64
2018-06-21T05:43:01.703Z,99705.66
2018-06-21T05:45:29.531Z,99706.83
2018-06-21T05:47:59.044Z,99717.70
2018-06-21T05:50:27.144Z,99712.17
2018-06-21T05:52:55.760Z,99713.66
2018-06-21T05:55:23.623Z,99706.09
2018-06-21T05:57:51.464Z,99703.48
2018-06-21T06:00:19.316Z,99710.37
2018-06-21T06:02:47.304Z,99704.68
2018-06-21T06:05:15.227Z,99689.15
2018-06-21T06:07:43.156Z,99712.37
2018-06-21T06:10:11.110Z,99702.73
2018-06-21T06:12:38.972Z,99694.73
2018-06-21T06:15:06.851Z,99699.38
2018-06-21T06:17:34.760Z,99701.07
2018-06-21T06:20:02.901Z,99703.67
2018-06-21T06:22:30.771Z,99694.37
2018-06-21T06:24:58.655Z,99688.95
2018-06-21T06:27:26.489Z,99700.25
2018-06-21T06:29:54.431Z,99694.73
2018-06-21T06:32:22.290Z,99706.70
2018-06-21T06:34:50.151Z,99701.80
2018-06-21T06:37:18.016Z,99704.41
2018-06-21T06:39:45.849Z,99709.08
2018-06-21T06:42:13.736Z,99699.40
2018-06-21T06:44:41.615Z,99705.20
2018-06-21T06:47:09.484Z,99712.41
2018-06-21T06:49:37.324Z,99713.65
2018-06-21T06:52:05.515Z,99709.08
2018-06-21T06:54:33.435Z,99706.27
2018-06-21T06:57:01.270Z,99708.05
2018-06-21T06:59:29.079Z,99707.73
2018-06-21T07:01:56.935Z,99705.96
2018-06-21T07:04:24.815Z,99704.26
2018-06-21T07:06:52.704Z,99704.64
2018-06-21T07:09:20.546Z,99701.99
2018-06-21T07:11:48.411Z,99709.82
2018-06-21T07:14:16.297Z,99706.34
2018-06-21T07:16:44.146Z,99707.02
2018-06-21T07:19:11.959Z,99712.71
2018-06-21T07:21:40.147Z,99708.58
2018-06-21T07:24:08.609Z,99703.36
2018-06-21T07:26:37.304Z,99704.16
2018-06-21T07:29:05.238Z,99695.05
2018-06-21T07:31:33.076Z,99695.31
2018-06-21T07:34:00.904Z,99692.05
2018-06-21T07:36:28.756Z,99689.16
2018-06-21T07:38:56.669Z,99689.97
2018-06-21T07:41:24.721Z,99687.41
2018-06-21T07:43:52.576Z,99687.83
2018-06-21T07:46:20.403Z,99685.59
2018-06-21T07:48:48.253Z,99675.89
2018-06-21T07:51:16.111Z,99679.31
2018-06-21T07:53:44.069Z,99674.45
2018-06-21T07:56:11.908Z,99674.84
2018-06-21T07:58:39.762Z,99683.77
2018-06-21T08:01:07.587Z,99679.67
2018-06-21T08:03:35.423Z,99683.13
2018-06-21T08:06:03.267Z,99676.43
2018-06-21T08:08:31.640Z,99677.42
2018-06-21T08:10:59.671Z,99678.31
2018-06-21T08:13:27.507Z,99671.98
2018-06-21T08:15:55.360Z,99678.26
2018-06-21T08:18:23.178Z,99672.81
2018-06-21T08:20:51.011Z,99666.25
2018-06-21T08:23:18.892Z,99665.55
2018-06-21T08:25:46.748Z,99666.88
2018-06-21T08:28:14.574Z,99668.02
2018-06-21T08:30:42.422Z,99663.75
2018-06-21T08:33:10.272Z,99658.11
2018-06-21T08:35:38.150Z,99657.16
2018-06-21T08:38:05.996Z,99650.14
2018-06-21T08:40:33.897Z,99652.41
2018-06-21T08:43:01.763Z,99654.47
2018-06-21T08:45:29.693Z,99655.17
2018-06-21T08:47:57.592Z,99648.34
2018-06-21T08:50:25.438Z,99653.00
2018-06-21T08:52:53.316Z,99644.38
2018-06-21T08:55:21.143Z,99641.88
2018-06-21T08:57:48.970Z,99643.89
2018-06-21T09:00:17.143Z,99641.25
2018-06-21T09:02:44.991Z,99635.65
2018-06-21T09:05:12.866Z,99632.72
2018-06-21T09:07:40.731Z,99635.08
2018-06-21T09:10:08.742Z,99628.42
2018-06-21T09:12:37.599Z,99629.70
2018-06-21T09:15:07.216Z,99614.20
2018-06-21T09:17:35.498Z,99626.42
2018-06-21T09:20:03.424Z,99623.75
2018-06-21T09:22:31.734Z,99620.23
2018-06-21T09:25:00.145Z,99621.33
2018-06-21T09:27:27.992Z,99615.05
2018-06-21T09:29:56.179Z,99611.50
2018-06-21T09:32:24.012Z,99610.94
2018-06-21T09:34:51.931Z,99601.84
2018-06-21T09:37:25.351Z,99605.23
2018-06-21T09:39:58.572Z,99603.94
2018-06-21T09:42:31.888Z,99592.86
2018-06-21T09:44:59.783Z,99593.58
2018-06-21T09:47:33.443Z,99594.80
2018-06-21T09:50:01.518Z,99582.21
2018-06-21T09:52:29.400Z,99580.16
2018-06-21T09:54:57.292Z,99578.45
2018-06-21T09:57:25.179Z,99580.02
2018-06-21T09:59:53.029Z,99572.81
2018-06-21T10:02:20.923Z,99572.08
2018-06-21T10:04:48.771Z,99564.63
2018-06-21T10:07:16.693Z,99564.39
2018-06-21T10:09:44.555Z,99561.50
2018-06-21T10:12:12.480Z,99567.27
2018-06-21T10:14:40.349Z,99558.75
2018-06-21T10:17:09.079Z,99554.45
2018-06-21T10:19:37.606Z,99555.72
2018-06-21T10:22:05.507Z,99549.45
2018-06-21T10:24:33.343Z,99544.94
2018-06-21T10:27:01.263Z,99541.41
2018-06-21T10:29:29.103Z,99539.50
2018-06-21T10:31:56.930Z,99532.81
2018-06-21T10:34:24.788Z,99532.00
2018-06-21T10:36:52.629Z,99526.77
2018-06-21T10:39:20.500Z,99525.56
2018-06-21T10:41:48.402Z,99520.43
2018-06-21T10:44:16.259Z,99511.45
2018-06-21T10:46:44.102Z,99508.20
2018-06-21T10:49:11.990Z,99501.90
2018-06-21T10:51:39.878Z,99493.93
2018-06-21T10:54:07.743Z,99485.55
2018-06-21T10:56:35.581Z,99475.37
2018-06-21T10:59:03.444Z,99481.59
2018-06-21T11:01:31.318Z,99471.41
2018-06-21T11:03:59.214Z,99458.77
2018-06-21T11:06:27.089Z,99456.85
2018-06-21T11:08:54.928Z,99452.39
2018-06-21T11:11:22.866Z,99447.66
2018-06-21T11:13:50.900Z,99443.70
2018-06-21T11:16:18.720Z,99442.70
2018-06-21T11:18:46.610Z,99424.23
2018-06-21T11:21:14.437Z,99424.13
2018-06-21T11:23:42.287Z,99409.03
2018-06-21T11:26:10.106Z,99408.71
2018-06-21T11:28:37.913Z,99401.34
2018-06-21T11:31:05.732Z,99414.56
2018-06-21T11:33:33.595Z,99410.05
2018-06-21T11:36:01.423Z,99401.12
2018-06-21T11:38:29.260Z,99397.06
2018-06-21T11:40:57.085Z,99398.23
2018-06-21T11:43:24.914Z,99384.19
2018-06-21T11:45:52.749Z,99380.12
2018-06-21T11:48:20.610Z,99373.79
2018-06-21T11:50:48.438Z,99373.95
2018-06-21T11:53:16.279Z,99383.14
2018-06-21T11:55:44.146Z,99376.81
2018-06-21T11:58:11.960Z,99378.15
2018-06-21T12:00:39.830Z,99359.77
2018-06-21T12:03:07.646Z,99363.73
2018-06-21T12:05:35.554Z,99366.19
2018-06-21T12:08:03.402Z,99359.67
2018-06-21T12:10:31.232Z,99363.86
2018-06-21T12:12:59.082Z,99356.97
2018-06-21T12:15:26.898Z,99358.98
2018-06-21T12:17:54.719Z,99356.30
2018-06-21T12:20:22.577Z,99346.27
2018-06-21T12:22:50.482Z,99342.89
2018-06-21T12:25:18.330Z,99336.73
2018-06-21T12:27:46.195Z,99332.55
2018-06-21T12:30:14.055Z,99332.13
2018-06-21T12:32:41.883Z,99334.70
2018-06-21T12:35:09.714Z,99320.75
2018-06-21T12:37:37.569Z,99315.91
2018-06-21T12:40:05.389Z,99318.14
2018-06-21T12:42:33.252Z,99312.04
2018-06-21T12:45:01.075Z,99310.25
2018-06-21T12:47:28.972Z,99314.93
2018-06-21T12:49:56.796Z,99312.19
2018-06-21T12:52:24.637Z,99315.23
2018-06-21T12:54:52.498Z,99329.78
2018-06-21T12:57:20.351Z,99324.07
2018-06-21T12:59:48.195Z,99315.50
2018-06-21T13:02:16.031Z,99322.78
2018-06-21T13:04:43.899Z,99312.52
2018-06-21T13:07:11.766Z,99306.30
2018-06-21T13:09:50.878Z,99313.30
2018-06-21T13:12:31.369Z,99304.05
2018-06-21T13:14:59.299Z,99300.78
2018-06-21T13:17:28.560Z,99295.94
2018-06-21T13:19:57.347Z,99305.28
2018-06-21T13:22:25.771Z,99302.48
2018-06-21T13:24:53.650Z,99311.09
2018-06-21T13:27:21.504Z,99304.48
2018-06-21T13:29:49.429Z,99307.14
2018-06-21T13:32:17.730Z,99311.59
2018-06-21T13:34:45.614Z,99318.31
2018-06-21T13:37:13.581Z,99340.00
2018-06-21T13:39:41.549Z,99342.77
2018-06-21T13:42:09.361Z,99350.23
2018-06-21T13:44:37.253Z,99357.28
2018-06-21T13:47:05.118Z,99414.56
2018-06-21T13:49:32.954Z,99414.42
2018-06-21T13:52:00.809Z,99428.11
2018-06-21T13:54:28.662Z,99419.32
2018-06-21T13:56:56.515Z,99443.22
2018-06-21T13:59:24.327Z,99434.26
2018-06-21T14:01:52.143Z,99434.38
2018-06-21T14:04:20.433Z,99417.29
2018-06-21T14:06:48.278Z,99419.12
2018-06-21T14:09:16.092Z,99402.88
2018-06-21T14:11:44.002Z,99410.09
2018-06-21T14:14:12.074Z,99405.59
2018-06-21T14:16:39.918Z,99395.73
2018-06-21T14:19:07.753Z,99388.34
2018-06-21T14:21:35.768Z,99379.95
2018-06-21T14:24:08.455Z,99381.11
2018-06-21T14:26:36.808Z,99374.63
2018-06-21T14:29:04.882Z,99365.03
2018-06-21T14:31:32.675Z,99354.83
2018-06-21T14:34:00.491Z,99362.41
2018-06-21T14:36:28.314Z,99358.10
2018-06-21T14:38:56.383Z,99360.94
2018-06-21T14:41:24.481Z,99361.20
2018-06-21T14:43:52.388Z,99361.71
2018-06-21T14:46:20.227Z,99360.94
2018-06-21T14:48:48.143Z,99359.44
2018-06-21T14:51:15.947Z,99357.14
2018-06-21T14:53:43.818Z,99357.27
2018-06-21T14:56:11.778Z,99350.03
2018-06-21T14:58:39.627Z,99351.92
2018-06-21T15:01:07.455Z,99345.80
2018-06-21T15:03:35.311Z,99353.32
2018-06-21T15:06:03.166Z,99345.23
2018-06-21T15:08:30.991Z,99341.69
2018-06-21T15:10:58.810Z,99335.48
2018-06-21T15:13:26.763Z,99335.78
2018-06-21T15:15:54.584Z,99332.77
2018-06-21T15:18:22.439Z,99330.87
2018-06-21T15:20:50.255Z,99323.50
2018-06-21T15:23:18.075Z,99318.14
2018-06-21T15:25:45.885Z,99312.96
2018-06-21T15:28:13.693Z,99309.36
2018-06-21T15:30:41.553Z,99306.22
2018-06-21T15:33:09.395Z,99300.53
2018-06-21T15:35:37.206Z,99292.41
2018-06-21T15:38:05.046Z,99283.45
2018-06-21T15:40:32.914Z,99290.40
2018-06-21T15:43:00.749Z,99287.30
2018-06-21T15:45:28.594Z,99284.72
2018-06-21T15:47:56.438Z,99281.69
2018-06-21T15:50:24.241Z,99280.11
2018-06-21T15:52:52.108Z,99278.66
2018-06-21T15:55:19.937Z,99274.24
2018-06-21T15:57:47.782Z,99277.41
2018-06-21T16:00:15.587Z,99281.55
2018-06-21T16:02:43.488Z,99280.27
2018-06-21T16:05:11.382Z,99288.39
2018-06-21T16:07:39.205Z,99289.26
2018-06-21T16:10:07.122Z,99302.73
2018-06-21T16:12:35.197Z,99299.53
2018-06-21T16:15:03.103Z,99306.77
2018-06-21T16:17:31.124Z,99312.25
2018-06-21T16:19:58.979Z,99318.19
2018-06-21T16:22:26.799Z,99306.44
2018-06-21T16:24:54.617Z,99311.69
2018-06-21T16:27:22.429Z,99311.61
2018-06-21T16:29:50.230Z,99314.97
2018-06-21T16:32:18.050Z,99315.05
2018-06-21T16:34:45.878Z,99312.66
2018-06-21T16:37:13.703Z,99310.27
2018-06-21T16:39:41.605Z,99312.03
2018-06-21T16:42:09.452Z,99307.58
2018-06-21T16:44:37.264Z,99303.20
2018-06-21T16:47:05.130Z,99298.84
2018-06-21T16:49:33.003Z,99285.03
2018-06-21T16:52:00.831Z,99289.66
2018-06-21T16:54:28.665Z,99292.17
2018-06-21T16:56:56.503Z,99291.55
2018-06-21T16:59:25.164Z,99300.66
2018-06-21T17:01:52.970Z,99302.00
2018-06-21T17:04:20.819Z,99307.17
2018-06-21T17:06:48.711Z,99311.72
2018-06-21T17:09:16.500Z,99312.73
2018-06-21T17:11:44.342Z,99308.77
2018-06-21T17:14:12.150Z,99306.69
2018-06-21T17:16:40.007Z,99304.16
2018-06-21T17:19:08.095Z,99306.37
2018-06-21T17:21:35.914Z,99311.30
2018-06-21T17:24:03.719Z,99316.13
2018-06-21T17:26:31.567Z,99312.91
2018-06-21T17:28:59.374Z,99310.34
2018-06-21T17:31:27.169Z,99319.61
2018-06-21T17:33:54.991Z,99318.65
2018-06-21T17:36:22.857Z,99323.52
2018-06-21T17:38:50.709Z,99324.66
2018-06-21T17:41:18.568Z,99325.21
2018-06-21T17:43:46.460Z,99324.12
2018-06-21T17:46:14.316Z,99334.19
2018-06-21T17:48:42.202Z,99330.68
2018-06-21T17:51:10.040Z,99327.08
2018-06-21T17:53:37.899Z,99323.77
2018-06-21T17:56:05.755Z,99329.38
2018-06-21T17:58:33.728Z,99333.33
2018-06-21T18:01:01.651Z,99333.56
2018-06-21T18:03:29.456Z,99338.38
2018-06-21T18:05:57.350Z,99331.83
2018-06-21T18:08:25.177Z,99331.83
2018-06-21T18:10:53.044Z,99336.01
2018-06-21T18:13:20.842Z,99344.70
2018-06-21T18:15:48.695Z,99342.26
2018-06-21T18:18:16.552Z,99332.42
2018-06-21T18:20:44.394Z,99338.39
2018-06-21T18:23:12.201Z,99331.97
2018-06-21T18:25:40.035Z,99335.66
2018-06-21T18:28:07.871Z,99336.98
2018-06-21T18:30:35.742Z,99340.23
2018-06-21T18:33:03.839Z,99350.28
2018-06-21T18:35:31.711Z,99347.77
2018-06-21T18:37:59.546Z,99348.92
2018-06-21T18:40:27.371Z,99351.00
2018-06-21T18:42:55.209Z,99358.09
2018-06-21T18:45:23.004Z,99365.80
2018-06-21T18:47:50.874Z,99368.73
2018-06-21T18:50:18.693Z,99368.55
2018-06-21T18:52:46.582Z,99368.01
2018-06-21T18:55:14.441Z,99360.06
2018-06-21T18:57:42.305Z,99354.75
2018-06-21T19:00:10.627Z,99359.00
2018-06-21T19:02:39.041Z,99358.52
2018-06-21T19:05:06.892Z,99363.41
2018-06-21T19:07:35.213Z,99358.38
2018-06-21T19:10:08.644Z,99362.65
2018-06-21T19:12:36.558Z,99357.67
2018-06-21T19:15:04.422Z,99367.34
2018-06-21T19:17:32.286Z,99364.39
2018-06-21T19:20:00.160Z,99375.03
2018-06-21T19:22:27.988Z,99377.83
2018-06-21T19:24:55.843Z,99382.77
2018-06-21T19:27:23.721Z,99386.30
2018-06-21T19:29:51.559Z,99388.73
2018-06-21T19:32:19.443Z,99392.61
2018-06-21T19:34:47.257Z,99387.58
2018-06-21T19:37:15.091Z,99387.17
2018-06-21T19:39:42.943Z,99380.94
2018-06-21T19:42:10.827Z,99376.77
2018-06-21T19:44:38.600Z,99368.53
2018-06-21T19:47:06.415Z,99366.23
2018-06-21T19:49:34.240Z,99365.05
2018-06-21T19:52:02.054Z,99362.81
2018-06-21T19:54:29.937Z,99356.43
2018-06-21T19:56:57.793Z,99362.95
2018-06-21T19:59:25.676Z,99366.18
2018-06-21T20:01:53.858Z,99355.41
2018-06-21T20:04:21.676Z,99357.18
2018-06-21T20:06:49.486Z,99357.12
2018-06-21T20:09:17.386Z,99356.37
2018-06-21T20:11:45.261Z,99359.48
2018-06-21T20:14:13.129Z,99362.02
2018-06-21T20:16:40.941Z,99368.95
2018-06-21T20:19:11.973Z,99365.79
2018-06-21T20:21:39.956Z,99360.13
2018-06-21T20:24:08.033Z,99352.08
2018-06-21T20:26:35.896Z,99361.94
2018-06-21T20:29:05.681Z,99345.25
2018-06-21T20:31:42.569Z,99355.24
2018-06-21T20:34:10.394Z,99354.41
2018-06-21T20:36:38.206Z,99359.36
2018-06-21T20:39:08.308Z,99353.91
2018-06-21T20:41:36.170Z,99355.41
2018-06-21T20:44:04.268Z,99354.41
2018-06-21T20:46:32.158Z,99350.66
2018-06-21T20:49:00.003Z,99349.30
2018-06-21T20:51:27.845Z,99344.61
2018-06-21T20:53:55.707Z,99347.42
2018-06-21T20:56:23.536Z,99346.10
2018-06-21T20:58:51.419Z,99349.97
2018-06-21T21:01:19.320Z,99349.68
2018-06-21T21:03:47.178Z,99348.84
2018-06-21T21:06:14.947Z,99355.77
2018-06-21T21:08:42.790Z,99358.22
2018-06-21T21:11:10.652Z,99356.60
2018-06-21T21:13:38.486Z,99358.84
2018-06-21T21:16:06.375Z,99359.13
2018-06-21T21:18:34.186Z,99369.58
2018-06-21T21:21:01.933Z,99372.58
2018-06-21T21:23:29.731Z,99374.53
2018-06-21T21:25:57.559Z,99372.59
2018-06-21T21:28:25.356Z,99370.95
2018-06-21T21:30:53.168Z,99361.88
2018-06-21T21:33:21.010Z,99366.56
2018-06-21T21:35:48.831Z,99357.50
2018-06-21T21:38:16.672Z,99363.27
2018-06-21T21:40:44.507Z,99361.07
2018-06-21T21:43:12.352Z,99352.57
2018-06-21T21:45:40.178Z,99351.20
2018-06-21T21:48:07.979Z,99350.91
2018-06-21T21:50:35.854Z,99348.93
2018-06-21T21:53:03.682Z,99353.33
2018-06-21T21:55:31.448Z,99347.58
2018-06-21T21:57:59.286Z,99350.58
2018-06-21T22:00:59.366Z,99352.48
2018-06-21T22:03:27.270Z,99345.97
2018-06-21T22:05:55.125Z,99340.48
2018-06-21T22:08:22.931Z,99346.20
2018-06-21T22:10:50.712Z,99347.83
2018-06-21T22:13:18.640Z,99344.52
2018-06-21T22:15:46.327Z,99340.97
2018-06-21T22:18:14.064Z,99356.34
2018-06-21T22:20:41.808Z,99351.14
2018-06-21T22:23:09.653Z,99350.84
2018-06-21T22:25:37.411Z,99352.22
2018-06-21T22:28:05.234Z,99358.22
2018-06-21T22:30:33.080Z,99357.70
2018-06-21T22:33:00.877Z,99352.20
2018-06-21T22:35:29.058Z,99350.23
2018-06-21T22:37:56.905Z,99343.94
2018-06-21T22:40:24.737Z,99339.54
2018-06-21T22:42:52.555Z,99341.45
2018-06-21T22:45:20.307Z,99337.31
2018-06-21T22:47:48.076Z,99333.48
2018-06-21T22:50:15.902Z,99341.69
2018-06-21T22:52:43.719Z,99338.37
2018-06-21T22:57:38.572Z,99336.69
2018-06-21T23:00:06.317Z,99334.45
2018-06-21T23:02:34.018Z,99330.94
2018-06-21T23:05:01.887Z,99330.85
2018-06-21T23:07:29.751Z,99326.19
2018-06-21T23:09:57.599Z,99324.50
2018-06-21T23:12:25.410Z,99325.31
2018-06-21T23:14:53.244Z,99314.48
2018-06-21T23:17:21.086Z,99309.12
2018-06-21T23:19:48.930Z,99309.61
2018-06-21T23:22:16.756Z,99302.52
2018-06-21T23:24:44.657Z,99303.28
2018-06-21T23:27:12.499Z,99306.59
2018-06-21T23:29:40.356Z,99306.06
2018-06-21T23:32:08.204Z,99299.39
2018-06-21T23:34:36.017Z,99303.84
2018-06-21T23:37:03.949Z,99299.99
2018-06-21T23:39:31.758Z,99307.61
2018-06-21T23:41:59.595Z,99304.91
2018-06-21T23:44:27.438Z,99295.86
2018-06-21T23:46:55.286Z,99298.55
2018-06-21T23:49:23.143Z,99302.68
2018-06-21T23:51:50.987Z,99295.58
2018-06-21T23:54:18.828Z,99293.42
2018-06-21T23:56:46.647Z,99291.69
2018-06-21T23:59:14.473Z,99289.55
